sensor_id;sensor_type;location;lat;lon;timestamp;P1;durP1;ratioP1;P2;durP2;ratioP2
44766;SDS011;30487;48.716;9.272;2023-04-09T00:02:24;12.32;;;7.13;;
44766;SDS011;30487;48.716;9.272;2023-04-09T00:04:50;11.13;;;7.32;;
44766;SDS011;30487;48.716;9.272;2023-04-09T00:07:16;11.10;;;7.22;;
44766;SDS011;30487;48.716;9.272;2023-04-09T00:09:41;11.45;;;7.13;;
44766;SDS011;30487;48.716;9.272;2023-04-09T00:12:07;11.32;;;7.32;;
44766;SDS011;30487;48.716;9.272;2023-04-09T00:14:33;11.60;;;6.80;;
44766;SDS011;30487;48.716;9.272;2023-04-09T00:16:58;11.30;;;7.15;;
44766;SDS011;30487;48.716;9.272;2023-04-09T00:19:24;9.88;;;6.90;;
44766;SDS011;30487;48.716;9.272;2023-04-09T00:21:49;10.23;;;6.32;;
44766;SDS011;30487;48.716;9.272;2023-04-09T00:24:16;11.57;;;6.90;;
44766;SDS011;30487;48.716;9.272;2023-04-09T00:26:42;10.55;;;6.95;;
44766;SDS011;30487;48.716;9.272;2023-04-09T00:29:07;12.43;;;6.70;;
44766;SDS011;30487;48.716;9.272;2023-04-09T00:31:33;12.45;;;7.05;;
44766;SDS011;30487;48.716;9.272;2023-04-09T00:33:58;11.00;;;7.22;;
44766;SDS011;30487;48.716;9.272;2023-04-09T00:36:24;10.90;;;7.10;;
44766;SDS011;30487;48.716;9.272;2023-04-09T00:38:50;12.40;;;7.30;;
44766;SDS011;30487;48.716;9.272;2023-04-09T00:41:17;10.23;;;6.25;;
44766;SDS011;30487;48.716;9.272;2023-04-09T00:43:43;12.00;;;7.10;;
44766;SDS011;30487;48.716;9.272;2023-04-09T00:46:09;12.50;;;6.40;;
44766;SDS011;30487;48.716;9.272;2023-04-09T00:48:35;11.10;;;6.40;;
44766;SDS011;30487;48.716;9.272;2023-04-09T00:51:00;11.45;;;6.65;;
44766;SDS011;30487;48.716;9.272;2023-04-09T00:53:26;10.80;;;6.85;;
44766;SDS011;30487;48.716;9.272;2023-04-09T00:55:52;10.40;;;6.70;;
44766;SDS011;30487;48.716;9.272;2023-04-09T00:58:19;10.15;;;6.90;;
44766;SDS011;30487;48.716;9.272;2023-04-09T01:00:45;10.80;;;6.32;;
44766;SDS011;30487;48.716;9.272;2023-04-09T01:03:10;10.40;;;6.40;;
44766;SDS011;30487;48.716;9.272;2023-04-09T01:06:20;12.18;;;6.90;;
44766;SDS011;30487;48.716;9.272;2023-04-09T01:08:44;10.32;;;6.35;;
44766;SDS011;30487;48.716;9.272;2023-04-09T01:11:23;9.85;;;6.15;;
44766;SDS011;30487;48.716;9.272;2023-04-09T01:14:07;11.20;;;6.70;;
44766;SDS011;30487;48.716;9.272;2023-04-09T01:17:04;10.30;;;6.00;;
44766;SDS011;30487;48.716;9.272;2023-04-09T01:19:40;9.63;;;5.85;;
44766;SDS011;30487;48.716;9.272;2023-04-09T01:22:21;10.27;;;6.13;;
44766;SDS011;30487;48.716;9.272;2023-04-09T01:27:45;10.60;;;6.53;;
44766;SDS011;30487;48.716;9.272;2023-04-09T01:30:18;11.63;;;6.80;;
44766;SDS011;30487;48.716;9.272;2023-04-09T01:32:45;10.98;;;6.45;;
44766;SDS011;30487;48.716;9.272;2023-04-09T01:35:10;11.38;;;6.65;;
44766;SDS011;30487;48.716;9.272;2023-04-09T01:37:37;10.55;;;6.28;;
44766;SDS011;30487;48.716;9.272;2023-04-09T01:40:04;10.93;;;6.40;;
44766;SDS011;30487;48.716;9.272;2023-04-09T01:42:30;10.00;;;6.45;;
44766;SDS011;30487;48.716;9.272;2023-04-09T01:44:57;10.70;;;6.30;;
44766;SDS011;30487;48.716;9.272;2023-04-09T01:47:24;10.68;;;6.70;;
44766;SDS011;30487;48.716;9.272;2023-04-09T01:49:51;11.32;;;6.78;;
44766;SDS011;30487;48.716;9.272;2023-04-09T01:52:17;10.35;;;6.65;;
44766;SDS011;30487;48.716;9.272;2023-04-09T01:54:43;11.27;;;6.93;;
44766;SDS011;30487;48.716;9.272;2023-04-09T01:57:09;10.07;;;6.13;;
44766;SDS011;30487;48.716;9.272;2023-04-09T01:59:35;11.63;;;6.88;;
44766;SDS011;30487;48.716;9.272;2023-04-09T02:02:04;11.18;;;6.85;;
44766;SDS011;30487;48.716;9.272;2023-04-09T02:04:36;9.65;;;6.05;;
44766;SDS011;30487;48.716;9.272;2023-04-09T02:07:05;11.88;;;6.90;;
44766;SDS011;30487;48.716;9.272;2023-04-09T02:09:38;12.43;;;7.00;;
44766;SDS011;30487;48.716;9.272;2023-04-09T02:12:05;10.00;;;6.45;;
44766;SDS011;30487;48.716;9.272;2023-04-09T02:14:35;11.68;;;7.03;;
44766;SDS011;30487;48.716;9.272;2023-04-09T02:17:02;11.18;;;6.55;;
44766;SDS011;30487;48.716;9.272;2023-04-09T02:19:41;11.07;;;6.50;;
44766;SDS011;30487;48.716;9.272;2023-04-09T02:22:09;10.57;;;6.78;;
44766;SDS011;30487;48.716;9.272;2023-04-09T02:24:35;11.90;;;6.90;;
44766;SDS011;30487;48.716;9.272;2023-04-09T02:27:01;11.10;;;6.75;;
44766;SDS011;30487;48.716;9.272;2023-04-09T02:29:27;11.60;;;6.82;;
44766;SDS011;30487;48.716;9.272;2023-04-09T02:31:52;9.75;;;6.30;;
44766;SDS011;30487;48.716;9.272;2023-04-09T02:34:19;10.98;;;6.10;;
44766;SDS011;30487;48.716;9.272;2023-04-09T02:36:44;11.02;;;6.75;;
44766;SDS011;30487;48.716;9.272;2023-04-09T02:39:10;10.20;;;6.65;;
44766;SDS011;30487;48.716;9.272;2023-04-09T02:41:35;10.25;;;6.70;;
44766;SDS011;30487;48.716;9.272;2023-04-09T02:44:01;10.45;;;6.38;;
44766;SDS011;30487;48.716;9.272;2023-04-09T02:46:27;12.20;;;6.70;;
44766;SDS011;30487;48.716;9.272;2023-04-09T02:48:52;13.63;;;6.50;;
44766;SDS011;30487;48.716;9.272;2023-04-09T02:51:18;10.65;;;6.38;;
44766;SDS011;30487;48.716;9.272;2023-04-09T02:53:44;10.60;;;6.50;;
44766;SDS011;30487;48.716;9.272;2023-04-09T02:56:09;10.70;;;6.82;;
44766;SDS011;30487;48.716;9.272;2023-04-09T02:58:35;12.02;;;7.28;;
44766;SDS011;30487;48.716;9.272;2023-04-09T03:01:01;10.30;;;6.78;;
44766;SDS011;30487;48.716;9.272;2023-04-09T03:03:26;12.20;;;7.20;;
44766;SDS011;30487;48.716;9.272;2023-04-09T03:05:52;11.05;;;7.20;;
44766;SDS011;30487;48.716;9.272;2023-04-09T03:08:17;12.65;;;7.53;;
44766;SDS011;30487;48.716;9.272;2023-04-09T03:10:43;11.63;;;7.05;;
44766;SDS011;30487;48.716;9.272;2023-04-09T03:13:08;11.88;;;7.28;;
44766;SDS011;30487;48.716;9.272;2023-04-09T03:15:34;12.30;;;7.38;;
44766;SDS011;30487;48.716;9.272;2023-04-09T03:18:00;11.68;;;6.82;;
44766;SDS011;30487;48.716;9.272;2023-04-09T03:20:25;13.20;;;7.70;;
44766;SDS011;30487;48.716;9.272;2023-04-09T03:22:51;13.50;;;7.47;;
44766;SDS011;30487;48.716;9.272;2023-04-09T03:25:16;12.07;;;7.55;;
44766;SDS011;30487;48.716;9.272;2023-04-09T03:27:44;13.23;;;7.57;;
44766;SDS011;30487;48.716;9.272;2023-04-09T03:30:10;13.30;;;8.07;;
44766;SDS011;30487;48.716;9.272;2023-04-09T03:32:36;12.45;;;7.68;;
44766;SDS011;30487;48.716;9.272;2023-04-09T03:35:01;12.48;;;7.47;;
44766;SDS011;30487;48.716;9.272;2023-04-09T03:37:27;13.68;;;7.75;;
44766;SDS011;30487;48.716;9.272;2023-04-09T03:39:53;14.13;;;8.07;;
44766;SDS011;30487;48.716;9.272;2023-04-09T03:42:18;11.90;;;7.70;;
44766;SDS011;30487;48.716;9.272;2023-04-09T03:44:44;11.43;;;7.07;;
44766;SDS011;30487;48.716;9.272;2023-04-09T03:47:10;11.65;;;7.65;;
44766;SDS011;30487;48.716;9.272;2023-04-09T03:49:35;13.02;;;7.78;;
44766;SDS011;30487;48.716;9.272;2023-04-09T03:52:01;11.18;;;6.93;;
44766;SDS011;30487;48.716;9.272;2023-04-09T03:54:29;11.45;;;7.22;;
44766;SDS011;30487;48.716;9.272;2023-04-09T03:56:55;13.05;;;7.55;;
44766;SDS011;30487;48.716;9.272;2023-04-09T03:59:21;12.95;;;7.50;;
44766;SDS011;30487;48.716;9.272;2023-04-09T04:01:47;12.70;;;7.53;;
44766;SDS011;30487;48.716;9.272;2023-04-09T04:04:12;12.10;;;7.50;;
44766;SDS011;30487;48.716;9.272;2023-04-09T04:06:38;12.50;;;7.70;;
44766;SDS011;30487;48.716;9.272;2023-04-09T04:09:04;12.20;;;7.18;;
44766;SDS011;30487;48.716;9.272;2023-04-09T04:11:29;12.05;;;7.50;;
44766;SDS011;30487;48.716;9.272;2023-04-09T04:13:55;12.27;;;7.53;;
44766;SDS011;30487;48.716;9.272;2023-04-09T04:16:21;13.60;;;8.35;;
44766;SDS011;30487;48.716;9.272;2023-04-09T04:18:46;13.30;;;7.82;;
44766;SDS011;30487;48.716;9.272;2023-04-09T04:21:13;14.57;;;7.88;;
44766;SDS011;30487;48.716;9.272;2023-04-09T04:23:39;12.13;;;7.50;;
44766;SDS011;30487;48.716;9.272;2023-04-09T04:26:08;14.30;;;7.95;;
44766;SDS011;30487;48.716;9.272;2023-04-09T04:28:38;11.95;;;7.47;;
44766;SDS011;30487;48.716;9.272;2023-04-09T04:31:10;13.20;;;8.10;;
44766;SDS011;30487;48.716;9.272;2023-04-09T04:33:37;14.07;;;8.23;;
44766;SDS011;30487;48.716;9.272;2023-04-09T04:36:05;12.70;;;7.40;;
44766;SDS011;30487;48.716;9.272;2023-04-09T04:38:31;13.38;;;7.93;;
44766;SDS011;30487;48.716;9.272;2023-04-09T04:40:58;12.23;;;7.72;;
44766;SDS011;30487;48.716;9.272;2023-04-09T04:43:23;13.27;;;7.50;;
44766;SDS011;30487;48.716;9.272;2023-04-09T04:45:49;13.38;;;7.15;;
44766;SDS011;30487;48.716;9.272;2023-04-09T04:48:14;13.57;;;8.10;;
44766;SDS011;30487;48.716;9.272;2023-04-09T04:50:40;14.07;;;8.43;;
44766;SDS011;30487;48.716;9.272;2023-04-09T04:53:05;14.00;;;8.25;;
44766;SDS011;30487;48.716;9.272;2023-04-09T04:55:33;13.45;;;7.93;;
44766;SDS011;30487;48.716;9.272;2023-04-09T04:58:00;12.32;;;7.60;;
44766;SDS011;30487;48.716;9.272;2023-04-09T05:00:25;11.73;;;7.50;;
44766;SDS011;30487;48.716;9.272;2023-04-09T05:02:51;11.60;;;7.43;;
44766;SDS011;30487;48.716;9.272;2023-04-09T05:05:16;12.15;;;7.50;;
44766;SDS011;30487;48.716;9.272;2023-04-09T05:07:42;11.98;;;7.60;;
44766;SDS011;30487;48.716;9.272;2023-04-09T05:10:08;12.23;;;7.28;;
44766;SDS011;30487;48.716;9.272;2023-04-09T05:12:33;11.82;;;7.25;;
44766;SDS011;30487;48.716;9.272;2023-04-09T05:14:59;11.43;;;7.07;;
44766;SDS011;30487;48.716;9.272;2023-04-09T05:17:25;11.35;;;7.30;;
44766;SDS011;30487;48.716;9.272;2023-04-09T05:19:51;11.57;;;7.05;;
44766;SDS011;30487;48.716;9.272;2023-04-09T05:22:17;12.27;;;7.30;;
44766;SDS011;30487;48.716;9.272;2023-04-09T05:24:43;11.68;;;6.72;;
44766;SDS011;30487;48.716;9.272;2023-04-09T05:27:09;13.23;;;7.28;;
44766;SDS011;30487;48.716;9.272;2023-04-09T05:29:34;13.40;;;8.25;;
44766;SDS011;30487;48.716;9.272;2023-04-09T05:32:00;13.82;;;8.02;;
44766;SDS011;30487;48.716;9.272;2023-04-09T05:34:26;15.95;;;8.02;;
44766;SDS011;30487;48.716;9.272;2023-04-09T05:36:52;13.55;;;7.90;;
44766;SDS011;30487;48.716;9.272;2023-04-09T05:39:18;12.65;;;7.07;;
44766;SDS011;30487;48.716;9.272;2023-04-09T05:41:43;11.52;;;7.28;;
44766;SDS011;30487;48.716;9.272;2023-04-09T05:44:10;11.35;;;7.32;;
44766;SDS011;30487;48.716;9.272;2023-04-09T05:46:36;11.73;;;6.95;;
44766;SDS011;30487;48.716;9.272;2023-04-09T05:49:02;12.55;;;6.85;;
44766;SDS011;30487;48.716;9.272;2023-04-09T05:51:28;11.85;;;6.88;;
44766;SDS011;30487;48.716;9.272;2023-04-09T05:53:53;11.73;;;7.18;;
44766;SDS011;30487;48.716;9.272;2023-04-09T05:56:19;13.63;;;7.63;;
44766;SDS011;30487;48.716;9.272;2023-04-09T05:58:47;12.95;;;7.72;;
44766;SDS011;30487;48.716;9.272;2023-04-09T06:01:13;11.23;;;7.28;;
44766;SDS011;30487;48.716;9.272;2023-04-09T06:03:39;13.80;;;8.05;;
44766;SDS011;30487;48.716;9.272;2023-04-09T06:06:05;12.30;;;7.68;;
44766;SDS011;30487;48.716;9.272;2023-04-09T06:08:31;12.25;;;7.15;;
44766;SDS011;30487;48.716;9.272;2023-04-09T06:10:56;13.70;;;7.75;;
44766;SDS011;30487;48.716;9.272;2023-04-09T06:13:22;11.95;;;7.28;;
44766;SDS011;30487;48.716;9.272;2023-04-09T06:15:48;11.38;;;6.93;;
44766;SDS011;30487;48.716;9.272;2023-04-09T06:18:14;12.73;;;7.80;;
44766;SDS011;30487;48.716;9.272;2023-04-09T06:20:39;13.15;;;7.13;;
44766;SDS011;30487;48.716;9.272;2023-04-09T06:23:05;12.13;;;7.55;;
44766;SDS011;30487;48.716;9.272;2023-04-09T06:25:31;12.52;;;7.05;;
44766;SDS011;30487;48.716;9.272;2023-04-09T06:27:56;13.13;;;7.63;;
44766;SDS011;30487;48.716;9.272;2023-04-09T06:30:22;10.27;;;6.70;;
44766;SDS011;30487;48.716;9.272;2023-04-09T06:32:48;14.88;;;7.93;;
44766;SDS011;30487;48.716;9.272;2023-04-09T06:35:14;13.32;;;7.63;;
44766;SDS011;30487;48.716;9.272;2023-04-09T06:37:40;11.77;;;7.35;;
44766;SDS011;30487;48.716;9.272;2023-04-09T06:40:06;12.15;;;7.30;;
44766;SDS011;30487;48.716;9.272;2023-04-09T06:42:32;12.18;;;6.88;;
44766;SDS011;30487;48.716;9.272;2023-04-09T06:44:58;13.70;;;7.60;;
44766;SDS011;30487;48.716;9.272;2023-04-09T06:47:23;13.43;;;8.02;;
44766;SDS011;30487;48.716;9.272;2023-04-09T06:49:49;11.40;;;7.00;;
44766;SDS011;30487;48.716;9.272;2023-04-09T06:52:15;12.07;;;7.18;;
44766;SDS011;30487;48.716;9.272;2023-04-09T06:54:40;10.60;;;7.18;;
44766;SDS011;30487;48.716;9.272;2023-04-09T06:57:07;12.90;;;7.22;;
44766;SDS011;30487;48.716;9.272;2023-04-09T06:59:32;11.23;;;6.78;;
44766;SDS011;30487;48.716;9.272;2023-04-09T07:01:58;11.95;;;7.32;;
44766;SDS011;30487;48.716;9.272;2023-04-09T07:04:24;11.25;;;6.82;;
44766;SDS011;30487;48.716;9.272;2023-04-09T07:06:51;12.07;;;7.38;;
44766;SDS011;30487;48.716;9.272;2023-04-09T07:09:18;11.43;;;6.82;;
44766;SDS011;30487;48.716;9.272;2023-04-09T07:11:44;10.90;;;6.60;;
44766;SDS011;30487;48.716;9.272;2023-04-09T07:14:10;10.35;;;6.95;;
44766;SDS011;30487;48.716;9.272;2023-04-09T07:16:35;10.98;;;6.65;;
44766;SDS011;30487;48.716;9.272;2023-04-09T07:19:01;9.68;;;5.90;;
44766;SDS011;30487;48.716;9.272;2023-04-09T07:21:27;9.48;;;5.88;;
44766;SDS011;30487;48.716;9.272;2023-04-09T07:23:53;10.70;;;6.75;;
44766;SDS011;30487;48.716;9.272;2023-04-09T07:26:18;9.85;;;6.00;;
44766;SDS011;30487;48.716;9.272;2023-04-09T07:28:44;9.70;;;5.88;;
44766;SDS011;30487;48.716;9.272;2023-04-09T07:31:10;9.70;;;5.68;;
44766;SDS011;30487;48.716;9.272;2023-04-09T07:33:36;12.50;;;7.30;;
44766;SDS011;30487;48.716;9.272;2023-04-09T07:36:02;11.50;;;6.70;;
44766;SDS011;30487;48.716;9.272;2023-04-09T07:38:28;9.98;;;6.32;;
44766;SDS011;30487;48.716;9.272;2023-04-09T07:40:54;9.13;;;5.78;;
44766;SDS011;30487;48.716;9.272;2023-04-09T07:43:20;8.70;;;5.28;;
44766;SDS011;30487;48.716;9.272;2023-04-09T07:45:47;6.85;;;4.95;;
44766;SDS011;30487;48.716;9.272;2023-04-09T07:48:13;7.57;;;5.10;;
44766;SDS011;30487;48.716;9.272;2023-04-09T07:50:39;9.02;;;5.50;;
44766;SDS011;30487;48.716;9.272;2023-04-09T07:53:04;9.80;;;6.18;;
44766;SDS011;30487;48.716;9.272;2023-04-09T07:55:30;9.38;;;6.60;;
44766;SDS011;30487;48.716;9.272;2023-04-09T07:57:55;11.10;;;6.53;;
44766;SDS011;30487;48.716;9.272;2023-04-09T08:00:21;13.70;;;7.57;;
44766;SDS011;30487;48.716;9.272;2023-04-09T08:02:47;11.30;;;6.97;;
44766;SDS011;30487;48.716;9.272;2023-04-09T08:05:12;10.18;;;6.65;;
44766;SDS011;30487;48.716;9.272;2023-04-09T08:07:38;10.55;;;6.47;;
44766;SDS011;30487;48.716;9.272;2023-04-09T08:10:04;11.57;;;7.05;;
44766;SDS011;30487;48.716;9.272;2023-04-09T08:12:30;10.90;;;7.03;;
44766;SDS011;30487;48.716;9.272;2023-04-09T08:14:56;11.05;;;6.65;;
44766;SDS011;30487;48.716;9.272;2023-04-09T08:17:21;9.82;;;6.72;;
44766;SDS011;30487;48.716;9.272;2023-04-09T08:19:47;11.20;;;7.05;;
44766;SDS011;30487;48.716;9.272;2023-04-09T08:22:13;11.75;;;7.57;;
44766;SDS011;30487;48.716;9.272;2023-04-09T08:24:39;12.40;;;7.47;;
44766;SDS011;30487;48.716;9.272;2023-04-09T08:27:07;12.15;;;7.20;;
44766;SDS011;30487;48.716;9.272;2023-04-09T08:29:33;10.50;;;6.97;;
44766;SDS011;30487;48.716;9.272;2023-04-09T08:31:59;10.82;;;7.43;;
44766;SDS011;30487;48.716;9.272;2023-04-09T08:34:25;10.32;;;6.95;;
44766;SDS011;30487;48.716;9.272;2023-04-09T08:36:50;10.77;;;7.00;;
44766;SDS011;30487;48.716;9.272;2023-04-09T08:39:16;10.20;;;6.57;;
44766;SDS011;30487;48.716;9.272;2023-04-09T08:41:45;8.88;;;6.22;;
44766;SDS011;30487;48.716;9.272;2023-04-09T08:44:12;8.95;;;6.07;;
44766;SDS011;30487;48.716;9.272;2023-04-09T08:46:38;10.02;;;6.45;;
44766;SDS011;30487;48.716;9.272;2023-04-09T08:49:03;8.75;;;6.30;;
44766;SDS011;30487;48.716;9.272;2023-04-09T08:51:29;8.82;;;6.43;;
44766;SDS011;30487;48.716;9.272;2023-04-09T08:53:57;8.93;;;5.93;;
44766;SDS011;30487;48.716;9.272;2023-04-09T08:56:24;8.23;;;5.88;;
44766;SDS011;30487;48.716;9.272;2023-04-09T08:58:50;9.40;;;5.97;;
44766;SDS011;30487;48.716;9.272;2023-04-09T09:01:27;9.27;;;6.47;;
44766;SDS011;30487;48.716;9.272;2023-04-09T09:03:58;8.55;;;6.28;;
44766;SDS011;30487;48.716;9.272;2023-04-09T09:06:24;8.20;;;5.43;;
44766;SDS011;30487;48.716;9.272;2023-04-09T09:11:32;9.27;;;6.22;;
44766;SDS011;30487;48.716;9.272;2023-04-09T09:14:00;7.10;;;4.93;;
44766;SDS011;30487;48.716;9.272;2023-04-09T09:16:30;7.80;;;5.15;;
44766;SDS011;30487;48.716;9.272;2023-04-09T09:18:58;10.77;;;6.95;;
44766;SDS011;30487;48.716;9.272;2023-04-09T09:21:25;7.60;;;5.78;;
44766;SDS011;30487;48.716;9.272;2023-04-09T09:23:52;7.90;;;5.78;;
44766;SDS011;30487;48.716;9.272;2023-04-09T09:26:26;6.97;;;5.10;;
44766;SDS011;30487;48.716;9.272;2023-04-09T09:28:53;6.05;;;4.30;;
44766;SDS011;30487;48.716;9.272;2023-04-09T09:31:20;5.80;;;4.20;;
44766;SDS011;30487;48.716;9.272;2023-04-09T09:33:46;6.10;;;4.30;;
44766;SDS011;30487;48.716;9.272;2023-04-09T09:36:13;6.13;;;4.28;;
44766;SDS011;30487;48.716;9.272;2023-04-09T09:38:53;6.60;;;4.47;;
44766;SDS011;30487;48.716;9.272;2023-04-09T09:41:20;7.25;;;5.30;;
44766;SDS011;30487;48.716;9.272;2023-04-09T09:43:46;7.25;;;5.22;;
44766;SDS011;30487;48.716;9.272;2023-04-09T09:46:12;8.27;;;5.80;;
44766;SDS011;30487;48.716;9.272;2023-04-09T09:48:38;7.80;;;5.35;;
44766;SDS011;30487;48.716;9.272;2023-04-09T09:51:11;8.25;;;5.88;;
44766;SDS011;30487;48.716;9.272;2023-04-09T09:53:40;7.82;;;5.25;;
44766;SDS011;30487;48.716;9.272;2023-04-09T09:56:13;7.35;;;4.93;;
44766;SDS011;30487;48.716;9.272;2023-04-09T09:58:43;7.30;;;5.13;;
44766;SDS011;30487;48.716;9.272;2023-04-09T10:03:41;6.55;;;5.07;;
44766;SDS011;30487;48.716;9.272;2023-04-09T10:06:08;7.18;;;5.40;;
44766;SDS011;30487;48.716;9.272;2023-04-09T10:08:35;7.35;;;5.38;;
44766;SDS011;30487;48.716;9.272;2023-04-09T10:11:02;6.75;;;5.05;;
44766;SDS011;30487;48.716;9.272;2023-04-09T10:15:59;6.85;;;4.65;;
44766;SDS011;30487;48.716;9.272;2023-04-09T10:18:26;7.18;;;4.40;;
44766;SDS011;30487;48.716;9.272;2023-04-09T10:23:38;5.10;;;3.80;;
44766;SDS011;30487;48.716;9.272;2023-04-09T10:26:05;5.88;;;4.55;;
44766;SDS011;30487;48.716;9.272;2023-04-09T10:28:31;7.60;;;5.18;;
44766;SDS011;30487;48.716;9.272;2023-04-09T10:30:58;5.38;;;3.92;;
44766;SDS011;30487;48.716;9.272;2023-04-09T10:33:24;4.70;;;3.47;;
44766;SDS011;30487;48.716;9.272;2023-04-09T10:35:52;4.63;;;3.38;;
44766;SDS011;30487;48.716;9.272;2023-04-09T10:38:32;6.00;;;4.50;;
44766;SDS011;30487;48.716;9.272;2023-04-09T10:41:06;6.85;;;4.20;;
44766;SDS011;30487;48.716;9.272;2023-04-09T10:43:34;5.63;;;3.97;;
44766;SDS011;30487;48.716;9.272;2023-04-09T10:46:00;6.13;;;3.88;;
44766;SDS011;30487;48.716;9.272;2023-04-09T10:48:31;4.47;;;3.20;;
44766;SDS011;30487;48.716;9.272;2023-04-09T10:50:57;4.65;;;3.28;;
44766;SDS011;30487;48.716;9.272;2023-04-09T10:53:23;4.55;;;3.13;;
44766;SDS011;30487;48.716;9.272;2023-04-09T10:55:51;4.65;;;3.28;;
44766;SDS011;30487;48.716;9.272;2023-04-09T10:58:17;5.93;;;4.05;;
44766;SDS011;30487;48.716;9.272;2023-04-09T11:00:46;4.82;;;3.65;;
44766;SDS011;30487;48.716;9.272;2023-04-09T11:03:23;5.72;;;4.22;;
44766;SDS011;30487;48.716;9.272;2023-04-09T11:06:02;4.53;;;3.38;;
44766;SDS011;30487;48.716;9.272;2023-04-09T11:08:31;4.90;;;3.55;;
44766;SDS011;30487;48.716;9.272;2023-04-09T11:10:57;6.35;;;4.03;;
44766;SDS011;30487;48.716;9.272;2023-04-09T11:13:25;5.25;;;3.72;;
44766;SDS011;30487;48.716;9.272;2023-04-09T11:15:52;7.68;;;4.97;;
44766;SDS011;30487;48.716;9.272;2023-04-09T11:18:20;7.35;;;4.78;;
44766;SDS011;30487;48.716;9.272;2023-04-09T11:20:47;5.15;;;4.05;;
44766;SDS011;30487;48.716;9.272;2023-04-09T11:23:14;6.53;;;4.13;;
44766;SDS011;30487;48.716;9.272;2023-04-09T11:25:40;5.68;;;3.75;;
44766;SDS011;30487;48.716;9.272;2023-04-09T11:28:06;5.65;;;3.70;;
44766;SDS011;30487;48.716;9.272;2023-04-09T11:30:32;7.32;;;5.28;;
44766;SDS011;30487;48.716;9.272;2023-04-09T11:32:58;5.75;;;3.78;;
44766;SDS011;30487;48.716;9.272;2023-04-09T11:35:24;4.55;;;3.17;;
44766;SDS011;30487;48.716;9.272;2023-04-09T11:37:50;5.18;;;3.83;;
44766;SDS011;30487;48.716;9.272;2023-04-09T11:40:20;4.47;;;3.33;;
44766;SDS011;30487;48.716;9.272;2023-04-09T11:42:51;4.82;;;3.25;;
44766;SDS011;30487;48.716;9.272;2023-04-09T11:45:18;4.97;;;3.25;;
44766;SDS011;30487;48.716;9.272;2023-04-09T11:47:46;5.32;;;3.25;;
44766;SDS011;30487;48.716;9.272;2023-04-09T11:50:12;4.70;;;3.22;;
44766;SDS011;30487;48.716;9.272;2023-04-09T11:52:39;5.15;;;3.53;;
44766;SDS011;30487;48.716;9.272;2023-04-09T11:55:06;5.30;;;3.40;;
44766;SDS011;30487;48.716;9.272;2023-04-09T11:57:42;7.13;;;3.60;;
44766;SDS011;30487;48.716;9.272;2023-04-09T12:00:12;4.95;;;3.60;;
44766;SDS011;30487;48.716;9.272;2023-04-09T12:02:42;5.07;;;3.75;;
44766;SDS011;30487;48.716;9.272;2023-04-09T12:05:11;5.40;;;3.80;;
44766;SDS011;30487;48.716;9.272;2023-04-09T12:07:38;5.40;;;3.47;;
44766;SDS011;30487;48.716;9.272;2023-04-09T12:10:04;5.30;;;3.75;;
44766;SDS011;30487;48.716;9.272;2023-04-09T12:12:40;4.93;;;3.83;;
44766;SDS011;30487;48.716;9.272;2023-04-09T12:15:25;4.70;;;3.33;;
44766;SDS011;30487;48.716;9.272;2023-04-09T12:17:56;4.72;;;3.47;;
44766;SDS011;30487;48.716;9.272;2023-04-09T12:20:35;5.55;;;3.85;;
44766;SDS011;30487;48.716;9.272;2023-04-09T12:23:04;5.05;;;3.97;;
44766;SDS011;30487;48.716;9.272;2023-04-09T12:25:31;7.28;;;4.07;;
44766;SDS011;30487;48.716;9.272;2023-04-09T12:27:59;6.05;;;3.90;;
44766;SDS011;30487;48.716;9.272;2023-04-09T12:30:25;4.88;;;3.63;;
44766;SDS011;30487;48.716;9.272;2023-04-09T12:32:51;5.40;;;3.53;;
44766;SDS011;30487;48.716;9.272;2023-04-09T12:35:18;5.60;;;3.63;;
44766;SDS011;30487;48.716;9.272;2023-04-09T12:37:44;4.93;;;3.50;;
44766;SDS011;30487;48.716;9.272;2023-04-09T12:40:10;5.65;;;3.40;;
44766;SDS011;30487;48.716;9.272;2023-04-09T12:42:39;6.18;;;3.00;;
44766;SDS011;30487;48.716;9.272;2023-04-09T12:45:06;4.93;;;3.38;;
44766;SDS011;30487;48.716;9.272;2023-04-09T12:47:33;4.65;;;3.05;;
44766;SDS011;30487;48.716;9.272;2023-04-09T12:49:58;5.00;;;3.42;;
44766;SDS011;30487;48.716;9.272;2023-04-09T12:52:24;6.25;;;4.18;;
44766;SDS011;30487;48.716;9.272;2023-04-09T12:54:50;6.53;;;3.33;;
44766;SDS011;30487;48.716;9.272;2023-04-09T12:57:16;5.05;;;3.10;;
44766;SDS011;30487;48.716;9.272;2023-04-09T12:59:42;4.75;;;3.00;;
44766;SDS011;30487;48.716;9.272;2023-04-09T13:02:07;4.57;;;3.05;;
44766;SDS011;30487;48.716;9.272;2023-04-09T13:04:33;5.47;;;3.30;;
44766;SDS011;30487;48.716;9.272;2023-04-09T13:06:58;4.80;;;3.25;;
44766;SDS011;30487;48.716;9.272;2023-04-09T13:09:24;5.60;;;3.50;;
44766;SDS011;30487;48.716;9.272;2023-04-09T13:11:50;4.68;;;3.10;;
44766;SDS011;30487;48.716;9.272;2023-04-09T13:14:16;4.72;;;3.17;;
44766;SDS011;30487;48.716;9.272;2023-04-09T13:16:41;3.90;;;2.75;;
44766;SDS011;30487;48.716;9.272;2023-04-09T13:19:07;4.30;;;2.88;;
44766;SDS011;30487;48.716;9.272;2023-04-09T13:21:33;4.55;;;3.10;;
44766;SDS011;30487;48.716;9.272;2023-04-09T13:24:00;5.10;;;3.30;;
44766;SDS011;30487;48.716;9.272;2023-04-09T13:26:27;3.60;;;2.90;;
44766;SDS011;30487;48.716;9.272;2023-04-09T13:28:52;4.60;;;2.83;;
44766;SDS011;30487;48.716;9.272;2023-04-09T13:31:18;4.35;;;3.03;;
44766;SDS011;30487;48.716;9.272;2023-04-09T13:33:44;4.15;;;2.83;;
44766;SDS011;30487;48.716;9.272;2023-04-09T13:36:09;5.68;;;3.17;;
44766;SDS011;30487;48.716;9.272;2023-04-09T13:38:36;4.82;;;3.25;;
44766;SDS011;30487;48.716;9.272;2023-04-09T13:41:01;4.78;;;3.15;;
44766;SDS011;30487;48.716;9.272;2023-04-09T13:43:27;4.65;;;3.17;;
44766;SDS011;30487;48.716;9.272;2023-04-09T13:45:53;5.72;;;3.30;;
44766;SDS011;30487;48.716;9.272;2023-04-09T13:48:19;4.55;;;2.90;;
44766;SDS011;30487;48.716;9.272;2023-04-09T13:50:45;4.30;;;3.08;;
44766;SDS011;30487;48.716;9.272;2023-04-09T13:53:12;5.57;;;3.30;;
44766;SDS011;30487;48.716;9.272;2023-04-09T13:55:38;4.22;;;2.75;;
44766;SDS011;30487;48.716;9.272;2023-04-09T13:58:04;5.35;;;3.22;;
44766;SDS011;30487;48.716;9.272;2023-04-09T14:00:30;5.38;;;3.25;;
44766;SDS011;30487;48.716;9.272;2023-04-09T14:02:56;4.90;;;3.17;;
44766;SDS011;30487;48.716;9.272;2023-04-09T14:05:21;4.80;;;3.10;;
44766;SDS011;30487;48.716;9.272;2023-04-09T14:07:47;4.63;;;2.92;;
44766;SDS011;30487;48.716;9.272;2023-04-09T14:10:12;5.25;;;3.45;;
44766;SDS011;30487;48.716;9.272;2023-04-09T14:12:38;4.15;;;2.90;;
44766;SDS011;30487;48.716;9.272;2023-04-09T14:15:04;4.97;;;3.20;;
44766;SDS011;30487;48.716;9.272;2023-04-09T14:17:30;4.53;;;3.22;;
44766;SDS011;30487;48.716;9.272;2023-04-09T14:19:56;4.82;;;2.97;;
44766;SDS011;30487;48.716;9.272;2023-04-09T14:22:23;4.88;;;2.88;;
44766;SDS011;30487;48.716;9.272;2023-04-09T14:24:49;4.82;;;3.08;;
44766;SDS011;30487;48.716;9.272;2023-04-09T14:27:15;5.20;;;3.15;;
44766;SDS011;30487;48.716;9.272;2023-04-09T14:29:41;4.75;;;2.95;;
44766;SDS011;30487;48.716;9.272;2023-04-09T14:32:06;5.43;;;3.33;;
44766;SDS011;30487;48.716;9.272;2023-04-09T14:34:32;5.35;;;3.40;;
44766;SDS011;30487;48.716;9.272;2023-04-09T14:36:58;6.90;;;3.92;;
44766;SDS011;30487;48.716;9.272;2023-04-09T14:39:23;7.43;;;3.70;;
44766;SDS011;30487;48.716;9.272;2023-04-09T14:41:49;5.65;;;3.78;;
44766;SDS011;30487;48.716;9.272;2023-04-09T14:44:15;6.13;;;3.80;;
44766;SDS011;30487;48.716;9.272;2023-04-09T14:46:41;5.20;;;3.60;;
44766;SDS011;30487;48.716;9.272;2023-04-09T14:49:07;5.32;;;3.17;;
44766;SDS011;30487;48.716;9.272;2023-04-09T14:51:33;6.70;;;3.83;;
44766;SDS011;30487;48.716;9.272;2023-04-09T14:53:59;5.75;;;3.70;;